sensor_id;sensor_type;location;lat;lon;timestamp;temperature;humidity
3794;DHT22;1912;51.358;12.282;2023-09-08T00:01:38;18.90;1.00
3794;DHT22;1912;51.358;12.282;2023-09-08T00:04:04;18.70;1.00
3794;DHT22;1912;51.358;12.282;2023-09-08T00:06:30;18.70;1.00
3794;DHT22;1912;51.358;12.282;2023-09-08T00:08:56;18.60;1.00
3794;DHT22;1912;51.358;12.282;2023-09-08T00:11:22;18.60;1.00
3794;DHT22;1912;51.358;12.282;2023-09-08T00:13:47;18.60;1.00
3794;DHT22;1912;51.358;12.282;2023-09-08T00:16:15;18.60;1.00
3794;DHT22;1912;51.358;12.282;2023-09-08T00:18:41;18.50;1.00
3794;DHT22;1912;51.358;12.282;2023-09-08T00:21:07;18.50;1.00
3794;DHT22;1912;51.358;12.282;2023-09-08T00:23:32;18.50;1.00
3794;DHT22;1912;51.358;12.282;2023-09-08T00:25:58;18.30;1.00
3794;DHT22;1912;51.358;12.282;2023-09-08T00:28:24;18.20;1.00
3794;DHT22;1912;51.358;12.282;2023-09-08T00:30:49;18.10;1.00
3794;DHT22;1912;51.358;12.282;2023-09-08T00:33:15;18.00;1.00
3794;DHT22;1912;51.358;12.282;2023-09-08T00:35:44;18.00;1.00
3794;DHT22;1912;51.358;12.282;2023-09-08T00:38:10;17.90;1.00
3794;DHT22;1912;51.358;12.282;2023-09-08T00:40:36;17.80;1.00
3794;DHT22;1912;51.358;12.282;2023-09-08T00:43:01;17.80;1.00
3794;DHT22;1912;51.358;12.282;2023-09-08T00:45:29;17.80;1.00
3794;DHT22;1912;51.358;12.282;2023-09-08T00:47:55;17.70;1.00
3794;DHT22;1912;51.358;12.282;2023-09-08T00:50:21;17.70;1.00
3794;DHT22;1912;51.358;12.282;2023-09-08T00:52:47;17.80;1.00
3794;DHT22;1912;51.358;12.282;2023-09-08T00:55:13;17.70;1.00
3794;DHT22;1912;51.358;12.282;2023-09-08T00:57:39;17.80;1.00
3794;DHT22;1912;51.358;12.282;2023-09-08T01:00:05;17.80;1.00
3794;DHT22;1912;51.358;12.282;2023-09-08T01:02:31;17.80;1.00
3794;DHT22;1912;51.358;12.282;2023-09-08T01:04:58;17.90;1.00
3794;DHT22;1912;51.358;12.282;2023-09-08T01:07:25;17.90;1.00
3794;DHT22;1912;51.358;12.282;2023-09-08T01:09:52;17.90;1.00
3794;DHT22;1912;51.358;12.282;2023-09-08T01:12:19;17.90;1.00
3794;DHT22;1912;51.358;12.282;2023-09-08T01:14:44;17.90;1.00
3794;DHT22;1912;51.358;12.282;2023-09-08T01:17:10;17.90;1.00
3794;DHT22;1912;51.358;12.282;2023-09-08T01:19:38;17.80;1.00
3794;DHT22;1912;51.358;12.282;2023-09-08T01:27:50;17.60;1.00
3794;DHT22;1912;51.358;12.282;2023-09-08T01:30:19;17.60;1.00
3794;DHT22;1912;51.358;12.282;2023-09-08T01:32:46;17.60;1.00
3794;DHT22;1912;51.358;12.282;2023-09-08T01:35:13;17.60;1.00
3794;DHT22;1912;51.358;12.282;2023-09-08T01:37:44;17.60;1.00
3794;DHT22;1912;51.358;12.282;2023-09-08T01:40:11;17.60;1.00
3794;DHT22;1912;51.358;12.282;2023-09-08T01:42:37;17.50;1.00
3794;DHT22;1912;51.358;12.282;2023-09-08T01:45:04;17.50;1.00
3794;DHT22;1912;51.358;12.282;2023-09-08T01:47:30;17.50;1.00
3794;DHT22;1912;51.358;12.282;2023-09-08T01:49:56;17.50;1.00
3794;DHT22;1912;51.358;12.282;2023-09-08T01:52:22;17.50;1.00
3794;DHT22;1912;51.358;12.282;2023-09-08T01:54:48;17.40;1.00
3794;DHT22;1912;51.358;12.282;2023-09-08T01:57:13;17.40;1.00
3794;DHT22;1912;51.358;12.282;2023-09-08T01:59:39;17.30;1.00
3794;DHT22;1912;51.358;12.282;2023-09-08T02:02:05;17.40;1.00
3794;DHT22;1912;51.358;12.282;2023-09-08T02:04:31;17.40;1.00
3794;DHT22;1912;51.358;12.282;2023-09-08T02:06:57;17.20;1.00
3794;DHT22;1912;51.358;12.282;2023-09-08T02:09:37;17.30;1.00
3794;DHT22;1912;51.358;12.282;2023-09-08T02:12:04;17.20;1.00
3794;DHT22;1912;51.358;12.282;2023-09-08T02:14:30;17.10;1.00
3794;DHT22;1912;51.358;12.282;2023-09-08T02:16:56;17.20;1.00
3794;DHT22;1912;51.358;12.282;2023-09-08T03:47:28;15.80;1.00
3794;DHT22;1912;51.358;12.282;2023-09-08T03:49:53;15.80;1.00
3794;DHT22;1912;51.358;12.282;2023-09-08T03:52:19;15.70;1.00
3794;DHT22;1912;51.358;12.282;2023-09-08T03:54:45;15.80;1.00
3794;DHT22;1912;51.358;12.282;2023-09-08T03:57:11;15.70;1.00
3794;DHT22;1912;51.358;12.282;2023-09-08T03:59:37;15.60;1.00
3794;DHT22;1912;51.358;12.282;2023-09-08T04:02:03;15.60;1.00
3794;DHT22;1912;51.358;12.282;2023-09-08T04:04:29;15.50;1.00
3794;DHT22;1912;51.358;12.282;2023-09-08T04:06:54;15.40;1.00
3794;DHT22;1912;51.358;12.282;2023-09-08T04:09:20;15.30;1.00
3794;DHT22;1912;51.358;12.282;2023-09-08T04:11:46;15.30;1.00
3794;DHT22;1912;51.358;12.282;2023-09-08T04:14:12;15.20;1.00
3794;DHT22;1912;51.358;12.282;2023-09-08T04:16:37;15.20;1.00
3794;DHT22;1912;51.358;12.282;2023-09-08T04:19:03;15.10;1.00
3794;DHT22;1912;51.358;12.282;2023-09-08T04:21:29;15.10;1.00
3794;DHT22;1912;51.358;12.282;2023-09-08T04:23:54;15.20;1.00
3794;DHT22;1912;51.358;12.282;2023-09-08T04:26:20;15.20;1.00
3794;DHT22;1912;51.358;12.282;2023-09-08T04:28:45;15.10;1.00
3794;DHT22;1912;51.358;12.282;2023-09-08T04:31:11;15.10;1.00
3794;DHT22;1912;51.358;12.282;2023-09-08T04:33:38;15.20;1.00
3794;DHT22;1912;51.358;12.282;2023-09-08T04:36:04;15.20;1.00
3794;DHT22;1912;51.358;12.282;2023-09-08T04:38:29;15.20;1.00
3794;DHT22;1912;51.358;12.282;2023-09-08T04:40:55;15.20;1.00
3794;DHT22;1912;51.358;12.282;2023-09-08T04:43:21;15.20;1.00
3794;DHT22;1912;51.358;12.282;2023-09-08T04:45:46;15.10;1.00
3794;DHT22;1912;51.358;12.282;2023-09-08T04:48:12;15.00;1.00
3794;DHT22;1912;51.358;12.282;2023-09-08T04:50:38;14.90;1.00
3794;DHT22;1912;51.358;12.282;2023-09-08T04:53:03;14.90;1.00
3794;DHT22;1912;51.358;12.282;2023-09-08T04:55:29;14.90;1.00
3794;DHT22;1912;51.358;12.282;2023-09-08T04:57:55;14.80;1.00
3794;DHT22;1912;51.358;12.282;2023-09-08T05:00:20;14.90;1.00
3794;DHT22;1912;51.358;12.282;2023-09-08T05:02:46;14.80;1.00
3794;DHT22;1912;51.358;12.282;2023-09-08T05:05:12;14.80;1.00
3794;DHT22;1912;51.358;12.282;2023-09-08T05:07:37;14.80;1.00
3794;DHT22;1912;51.358;12.282;2023-09-08T05:10:03;14.80;1.00
3794;DHT22;1912;51.358;12.282;2023-09-08T05:12:29;14.80;1.00
3794;DHT22;1912;51.358;12.282;2023-09-08T05:14:55;14.90;1.00
3794;DHT22;1912;51.358;12.282;2023-09-08T05:17:25;14.90;1.00
3794;DHT22;1912;51.358;12.282;2023-09-08T05:19:51;15.00;1.00
3794;DHT22;1912;51.358;12.282;2023-09-08T05:22:17;15.00;1.00
3794;DHT22;1912;51.358;12.282;2023-09-08T05:24:43;15.00;1.00
3794;DHT22;1912;51.358;12.282;2023-09-08T05:27:08;15.00;1.00
3794;DHT22;1912;51.358;12.282;2023-09-08T05:29:34;15.00;1.00
3794;DHT22;1912;51.358;12.282;2023-09-08T05:31:59;15.20;1.00
3794;DHT22;1912;51.358;12.282;2023-09-08T05:34:25;15.30;1.00
3794;DHT22;1912;51.358;12.282;2023-09-08T05:36:51;15.60;1.00
3794;DHT22;1912;51.358;12.282;2023-09-08T05:39:16;15.80;1.00
3794;DHT22;1912;51.358;12.282;2023-09-08T05:41:45;15.90;1.00
3794;DHT22;1912;51.358;12.282;2023-09-08T05:44:10;16.00;1.00
3794;DHT22;1912;51.358;12.282;2023-09-08T05:46:36;16.00;1.00
3794;DHT22;1912;51.358;12.282;2023-09-08T05:49:02;16.10;1.00
3794;DHT22;1912;51.358;12.282;2023-09-08T05:51:28;16.30;1.00
3794;DHT22;1912;51.358;12.282;2023-09-08T05:53:53;16.40;1.00
3794;DHT22;1912;51.358;12.282;2023-09-08T05:56:19;16.60;1.00
3794;DHT22;1912;51.358;12.282;2023-09-08T05:58:45;16.70;1.00
3794;DHT22;1912;51.358;12.282;2023-09-08T06:01:11;16.90;1.00
3794;DHT22;1912;51.358;12.282;2023-09-08T06:03:37;17.10;1.00
3794;DHT22;1912;51.358;12.282;2023-09-08T06:06:02;17.30;1.00
3794;DHT22;1912;51.358;12.282;2023-09-08T06:08:28;17.50;1.00
3794;DHT22;1912;51.358;12.282;2023-09-08T06:10:54;17.70;1.00
3794;DHT22;1912;51.358;12.282;2023-09-08T06:13:19;18.00;1.00
3794;DHT22;1912;51.358;12.282;2023-09-08T06:15:45;18.20;1.00
3794;DHT22;1912;51.358;12.282;2023-09-08T06:18:11;18.40;1.00
3794;DHT22;1912;51.358;12.282;2023-09-08T06:20:37;18.70;1.00
3794;DHT22;1912;51.358;12.282;2023-09-08T06:23:02;18.80;1.00
3794;DHT22;1912;51.358;12.282;2023-09-08T06:25:28;19.00;1.00
3794;DHT22;1912;51.358;12.282;2023-09-08T06:27:54;19.30;1.00
3794;DHT22;1912;51.358;12.282;2023-09-08T06:30:20;19.50;1.00
3794;DHT22;1912;51.358;12.282;2023-09-08T06:32:46;19.60;1.00
3794;DHT22;1912;51.358;12.282;2023-09-08T06:35:11;19.90;1.00
3794;DHT22;1912;51.358;12.282;2023-09-08T06:37:38;20.10;1.00
3794;DHT22;1912;51.358;12.282;2023-09-08T06:40:05;20.30;1.00
3794;DHT22;1912;51.358;12.282;2023-09-08T06:42:31;20.40;1.00
3794;DHT22;1912;51.358;12.282;2023-09-08T06:44:58;20.40;1.00
3794;DHT22;1912;51.358;12.282;2023-09-08T06:47:24;20.50;1.00
3794;DHT22;1912;51.358;12.282;2023-09-08T06:49:50;20.60;1.00
3794;DHT22;1912;51.358;12.282;2023-09-08T06:52:17;20.90;1.00
3794;DHT22;1912;51.358;12.282;2023-09-08T06:54:43;21.10;1.00
3794;DHT22;1912;51.358;12.282;2023-09-08T06:57:11;21.20;1.00
3794;DHT22;1912;51.358;12.282;2023-09-08T06:59:38;21.40;1.00
3794;DHT22;1912;51.358;12.282;2023-09-08T07:02:03;21.70;1.00
3794;DHT22;1912;51.358;12.282;2023-09-08T07:04:30;21.90;1.00
3794;DHT22;1912;51.358;12.282;2023-09-08T07:06:56;22.20;1.00
3794;DHT22;1912;51.358;12.282;2023-09-08T07:09:21;22.30;1.00
3794;DHT22;1912;51.358;12.282;2023-09-08T07:11:47;22.40;1.00
3794;DHT22;1912;51.358;12.282;2023-09-08T07:14:13;22.60;1.00
3794;DHT22;1912;51.358;12.282;2023-09-08T07:16:38;22.70;1.00
3794;DHT22;1912;51.358;12.282;2023-09-08T07:19:05;22.80;1.00
3794;DHT22;1912;51.358;12.282;2023-09-08T07:21:30;22.90;1.00
3794;DHT22;1912;51.358;12.282;2023-09-08T07:23:56;23.20;1.00
3794;DHT22;1912;51.358;12.282;2023-09-08T07:26:22;23.40;1.00
3794;DHT22;1912;51.358;12.282;2023-09-08T07:28:47;23.70;1.00
3794;DHT22;1912;51.358;12.282;2023-09-08T07:31:14;23.80;1.00
3794;DHT22;1912;51.358;12.282;2023-09-08T07:33:40;23.90;1.00
3794;DHT22;1912;51.358;12.282;2023-09-08T07:36:06;24.10;1.00
3794;DHT22;1912;51.358;12.282;2023-09-08T07:38:33;24.30;1.00
3794;DHT22;1912;51.358;12.282;2023-09-08T07:41:01;24.60;1.00
3794;DHT22;1912;51.358;12.282;2023-09-08T07:43:27;24.60;1.00
3794;DHT22;1912;51.358;12.282;2023-09-08T07:45:54;24.80;1.00
3794;DHT22;1912;51.358;12.282;2023-09-08T07:48:19;25.00;1.00
3794;DHT22;1912;51.358;12.282;2023-09-08T07:50:45;24.80;1.00
3794;DHT22;1912;51.358;12.282;2023-09-08T07:53:11;24.30;1.00
3794;DHT22;1912;51.358;12.282;2023-09-08T07:55:37;24.80;1.00
3794;DHT22;1912;51.358;12.282;2023-09-08T07:58:03;25.30;1.00
3794;DHT22;1912;51.358;12.282;2023-09-08T08:00:29;25.30;1.00
3794;DHT22;1912;51.358;12.282;2023-09-08T08:02:56;25.20;1.00
3794;DHT22;1912;51.358;12.282;2023-09-08T08:05:22;25.30;1.00
3794;DHT22;1912;51.358;12.282;2023-09-08T08:07:48;25.60;1.00
3794;DHT22;1912;51.358;12.282;2023-09-08T08:10:14;26.00;1.00
3794;DHT22;1912;51.358;12.282;2023-09-08T08:12:41;25.70;1.00
3794;DHT22;1912;51.358;12.282;2023-09-08T08:15:08;26.30;1.00
3794;DHT22;1912;51.358;12.282;2023-09-08T08:17:37;26.60;1.00
3794;DHT22;1912;51.358;12.282;2023-09-08T08:20:05;26.80;1.00
3794;DHT22;1912;51.358;12.282;2023-09-08T08:22:32;26.80;1.00
3794;DHT22;1912;51.358;12.282;2023-09-08T08:24:59;26.90;1.00
3794;DHT22;1912;51.358;12.282;2023-09-08T08:27:24;27.20;1.00
3794;DHT22;1912;51.358;12.282;2023-09-08T08:29:50;27.30;1.00
3794;DHT22;1912;51.358;12.282;2023-09-08T08:32:16;27.60;1.00
3794;DHT22;1912;51.358;12.282;2023-09-08T08:34:43;27.50;1.00
3794;DHT22;1912;51.358;12.282;2023-09-08T08:37:10;27.50;1.00
3794;DHT22;1912;51.358;12.282;2023-09-08T08:39:36;28.10;1.00
3794;DHT22;1912;51.358;12.282;2023-09-08T08:42:09;28.20;1.00
3794;DHT22;1912;51.358;12.282;2023-09-08T08:44:37;28.60;1.00
3794;DHT22;1912;51.358;12.282;2023-09-08T08:47:06;29.00;1.00
3794;DHT22;1912;51.358;12.282;2023-09-08T08:49:33;29.60;1.00
3794;DHT22;1912;51.358;12.282;2023-09-08T08:51:59;28.90;1.00
3794;DHT22;1912;51.358;12.282;2023-09-08T08:54:29;29.20;1.00
3794;DHT22;1912;51.358;12.282;2023-09-08T08:56:55;29.70;1.00
3794;DHT22;1912;51.358;12.282;2023-09-08T08:59:21;30.00;1.00
3794;DHT22;1912;51.358;12.282;2023-09-08T09:01:47;29.80;1.00
3794;DHT22;1912;51.358;12.282;2023-09-08T09:04:14;30.40;1.00
3794;DHT22;1912;51.358;12.282;2023-09-08T09:06:41;30.60;1.00
3794;DHT22;1912;51.358;12.282;2023-09-08T09:09:07;30.80;1.00
3794;DHT22;1912;51.358;12.282;2023-09-08T09:11:34;30.60;1.00
3794;DHT22;1912;51.358;12.282;2023-09-08T09:13:59;31.00;1.00
3794;DHT22;1912;51.358;12.282;2023-09-08T09:16:25;31.70;1.00
3794;DHT22;1912;51.358;12.282;2023-09-08T09:18:59;30.60;1.00
3794;DHT22;1912;51.358;12.282;2023-09-08T09:21:44;30.40;1.00
3794;DHT22;1912;51.358;12.282;2023-09-08T09:24:17;30.70;1.00
3794;DHT22;1912;51.358;12.282;2023-09-08T09:26:43;31.40;1.00
3794;DHT22;1912;51.358;12.282;2023-09-08T09:29:15;31.90;1.00
3794;DHT22;1912;51.358;12.282;2023-09-08T09:31:55;32.50;1.00
3794;DHT22;1912;51.358;12.282;2023-09-08T09:34:22;32.70;1.00
3794;DHT22;1912;51.358;12.282;2023-09-08T14:18:16;37.70;1.00
3794;DHT22;1912;51.358;12.282;2023-09-08T14:20:42;37.60;1.00
3794;DHT22;1912;51.358;12.282;2023-09-08T14:23:08;37.70;1.00
3794;DHT22;1912;51.358;12.282;2023-09-08T14:25:34;37.90;1.00
3794;DHT22;1912;51.358;12.282;2023-09-08T14:28:00;37.80;1.00
3794;DHT22;1912;51.358;12.282;2023-09-08T14:30:29;37.60;1.00
3794;DHT22;1912;51.358;12.282;2023-09-08T14:32:55;37.80;1.00
3794;DHT22;1912;51.358;12.282;2023-09-08T14:35:21;37.60;1.00
3794;DHT22;1912;51.358;12.282;2023-09-08T14:37:49;37.60;1.00
3794;DHT22;1912;51.358;12.282;2023-09-08T14:40:15;37.40;1.00
3794;DHT22;1912;51.358;12.282;2023-09-08T14:42:41;37.20;1.00
3794;DHT22;1912;51.358;12.282;2023-09-08T14:45:07;36.90;1.00
3794;DHT22;1912;51.358;12.282;2023-09-08T14:47:34;37.00;1.00
3794;DHT22;1912;51.358;12.282;2023-09-08T14:50:00;37.20;1.00
3794;DHT22;1912;51.358;12.282;2023-09-08T14:52:26;37.10;1.00
3794;DHT22;1912;51.358;12.282;2023-09-08T14:54:52;37.20;1.00
3794;DHT22;1912;51.358;12.282;2023-09-08T14:57:18;36.90;1.00
3794;DHT22;1912;51.358;12.282;2023-09-08T14:59:44;36.50;1.00
3794;DHT22;1912;51.358;12.282;2023-09-08T15:02:10;36.40;1.00
3794;DHT22;1912;51.358;12.282;2023-09-08T15:04:36;36.30;1.00
3794;DHT22;1912;51.358;12.282;2023-09-08T15:07:02;36.20;1.00
3794;DHT22;1912;51.358;12.282;2023-09-08T15:09:28;35.90;1.00
3794;DHT22;1912;51.358;12.282;2023-09-08T15:11:54;35.80;1.00
3794;DHT22;1912;51.358;12.282;2023-09-08T15:14:20;35.80;1.00
3794;DHT22;1912;51.358;12.282;2023-09-08T15:16:45;35.80;1.00
3794;DHT22;1912;51.358;12.282;2023-09-08T15:19:11;35.80;1.00
3794;DHT22;1912;51.358;12.282;2023-09-08T15:21:37;35.70;1.00
3794;DHT22;1912;51.358;12.282;2023-09-08T15:24:04;35.70;1.00
3794;DHT22;1912;51.358;12.282;2023-09-08T15:26:30;35.80;1.00
3794;DHT22;1912;51.358;12.282;2023-09-08T15:28:56;35.70;1.00
3794;DHT22;1912;51.358;12.282;2023-09-08T15:31:21;35.40;1.00
3794;DHT22;1912;51.358;12.282;2023-09-08T15:33:47;35.50;1.00
3794;DHT22;1912;51.358;12.282;2023-09-08T15:36:13;35.60;1.00
3794;DHT22;1912;51.358;12.282;2023-09-08T15:38:38;35.50;1.00
3794;DHT22;1912;51.358;12.282;2023-09-08T15:43:38;35.40;1.00
3794;DHT22;1912;51.358;12.282;2023-09-08T15:46:05;35.20;1.00
3794;DHT22;1912;51.358;12.282;2023-09-08T15:48:33;35.10;1.00
3794;DHT22;1912;51.358;12.282;2023-09-08T15:50:59;34.70;1.00
3794;DHT22;1912;51.358;12.282;2023-09-08T15:53:25;34.80;1.00
3794;DHT22;1912;51.358;12.282;2023-09-08T15:55:51;34.70;1.00
3794;DHT22;1912;51.358;12.282;2023-09-08T15:58:17;34.70;1.00
3794;DHT22;1912;51.358;12.282;2023-09-08T16:00:42;34.60;1.00
3794;DHT22;1912;51.358;12.282;2023-09-08T16:03:08;34.50;1.00
3794;DHT22;1912;51.358;12.282;2023-09-08T16:05:33;34.40;1.00
3794;DHT22;1912;51.358;12.282;2023-09-08T16:07:59;34.30;1.00
3794;DHT22;1912;51.358;12.282;2023-09-08T16:10:25;34.10;1.00
3794;DHT22;1912;51.358;12.282;2023-09-08T16:12:50;34.00;1.00
3794;DHT22;1912;51.358;12.282;2023-09-08T16:15:17;33.80;1.00
3794;DHT22;1912;51.358;12.282;2023-09-08T16:17:43;33.80;1.00
3794;DHT22;1912;51.358;12.282;2023-09-08T16:20:08;33.60;1.00
3794;DHT22;1912;51.358;12.282;2023-09-08T16:22:34;33.50;1.00
3794;DHT22;1912;51.358;12.282;2023-09-08T16:25:00;33.40;1.00
3794;DHT22;1912;51.358;12.282;2023-09-08T16:27:26;33.20;1.00
3794;DHT22;1912;51.358;12.282;2023-09-08T16:29:52;33.10;1.00
3794;DHT22;1912;51.358;12.282;2023-09-08T16:32:18;32.90;1.00
3794;DHT22;1912;51.358;12.282;2023-09-08T16:34:43;32.80;1.00
3794;DHT22;1912;51.358;12.282;2023-09-08T16:37:09;32.70;1.00
3794;DHT22;1912;51.358;12.282;2023-09-08T16:39:35;32.60;1.00
3794;DHT22;1912;51.358;12.282;2023-09-08T16:42:00;32.60;1.00
3794;DHT22;1912;51.358;12.282;2023-09-08T16:44:26;32.40;1.00
3794;DHT22;1912;51.358;12.282;2023-09-08T16:46:52;32.40;1.00
3794;DHT22;1912;51.358;12.282;2023-09-08T16:49:18;32.40;1.00
3794;DHT22;1912;51.358;12.282;2023-09-08T16:51:44;32.50;1.00
3794;DHT22;1912;51.358;12.282;2023-09-08T16:54:10;32.50;1.00
3794;DHT22;1912;51.358;12.282;2023-09-08T16:56:35;32.50;1.00
3794;DHT22;1912;51.358;12.282;2023-09-08T16:59:01;32.50;1.00
3794;DHT22;1912;51.358;12.282;2023-09-08T17:01:27;32.50;1.00
3794;DHT22;1912;51.358;12.282;2023-09-08T17:03:52;32.40;1.00
3794;DHT22;1912;51.358;12.282;2023-09-08T17:06:19;32.30;1.00
3794;DHT22;1912;51.358;12.282;2023-09-08T17:08:44;31.90;1.00
3794;DHT22;1912;51.358;12.282;2023-09-08T17:11:10;31.60;1.00
3794;DHT22;1912;51.358;12.282;2023-09-08T17:13:36;31.40;1.00
3794;DHT22;1912;51.358;12.282;2023-09-08T17:16:02;31.10;1.00
3794;DHT22;1912;51.358;12.282;2023-09-08T17:18:28;30.90;1.00
3794;DHT22;1912;51.358;12.282;2023-09-08T17:20:54;30.50;1.00
3794;DHT22;1912;51.358;12.282;2023-09-08T17:23:23;30.40;1.00
3794;DHT22;1912;51.358;12.282;2023-09-08T17:25:50;30.20;1.00
3794;DHT22;1912;51.358;12.282;2023-09-08T17:28:19;30.00;1.00
3794;DHT22;1912;51.358;12.282;2023-09-08T17:30:46;29.80;1.00
3794;DHT22;1912;51.358;12.282;2023-09-08T17:33:12;29.40;1.00
3794;DHT22;1912;51.358;12.282;2023-09-08T17:35:38;29.20;1.00
3794;DHT22;1912;51.358;12.282;2023-09-08T17:38:04;28.90;1.00
3794;DHT22;1912;51.358;12.282;2023-09-08T17:40:31;28.80;1.00
3794;DHT22;1912;51.358;12.282;2023-09-08T17:42:57;28.60;1.00
3794;DHT22;1912;51.358;12.282;2023-09-08T17:45:23;28.30;1.00
3794;DHT22;1912;51.358;12.282;2023-09-08T17:47:49;28.10;1.00
3794;DHT22;1912;51.358;12.282;2023-09-08T17:50:15;27.90;1.00
3794;DHT22;1912;51.358;12.282;2023-09-08T17:52:41;27.60;1.00
3794;DHT22;1912;51.358;12.282;2023-09-08T17:55:07;27.40;1.00
3794;DHT22;1912;51.358;12.282;2023-09-08T17:57:34;27.40;1.00
3794;DHT22;1912;51.358;12.282;2023-09-08T18:00:00;27.20;1.00
3794;DHT22;1912;51.358;12.282;2023-09-08T18:02:28;27.20;1.00
3794;DHT22;1912;51.358;12.282;2023-09-08T18:04:54;27.00;1.00
3794;DHT22;1912;51.358;12.282;2023-09-08T18:07:20;26.90;1.00
3794;DHT22;1912;51.358;12.282;2023-09-08T18:09:45;26.80;1.00
3794;DHT22;1912;51.358;12.282;2023-09-08T18:12:11;26.80;1.00
3794;DHT22;1912;51.358;12.282;2023-09-08T18:14:36;26.70;1.00
3794;DHT22;1912;51.358;12.282;2023-09-08T18:17:02;26.50;1.00
3794;DHT22;1912;51.358;12.282;2023-09-08T18:19:29;26.40;1.00
3794;DHT22;1912;51.358;12.282;2023-09-08T18:21:54;26.30;1.00
3794;DHT22;1912;51.358;12.282;2023-09-08T18:24:24;26.20;1.00
3794;DHT22;1912;51.358;12.282;2023-09-08T18:26:53;26.10;1.00
3794;DHT22;1912;51.358;12.282;2023-09-08T18:29:18;26.00;1.00
3794;DHT22;1912;51.358;12.282;2023-09-08T18:31:44;25.90;1.00
3794;DHT22;1912;51.358;12.282;2023-09-08T18:34:10;25.80;1.00
3794;DHT22;1912;51.358;12.282;2023-09-08T18:36:35;25.70;1.00
3794;DHT22;1912;51.358;12.282;2023-09-08T18:39:01;25.60;1.00
3794;DHT22;1912;51.358;12.282;2023-09-08T18:41:27;25.60;1.00
3794;DHT22;1912;51.358;12.282;2023-09-08T18:43:52;25.50;1.00
3794;DHT22;1912;51.358;12.282;2023-09-08T18:46:18;25.50;1.00
3794;DHT22;1912;51.358;12.282;2023-09-08T18:48:44;25.40;1.00
3794;DHT22;1912;51.358;12.282;2023-09-08T18:51:10;25.30;1.00
3794;DHT22;1912;51.358;12.282;2023-09-08T18:53:36;25.20;1.00
3794;DHT22;1912;51.358;12.282;2023-09-08T18:56:03;25.20;1.00
3794;DHT22;1912;51.358;12.282;2023-09-08T18:58:30;25.00;1.00
3794;DHT22;1912;51.358;12.282;2023-09-08T19:00:55;24.90;1.00
3794;DHT22;1912;51.358;12.282;2023-09-08T19:03:21;24.80;1.00
3794;DHT22;1912;51.358;12.282;2023-09-08T19:05:48;24.70;1.00
3794;DHT22;1912;51.358;12.282;2023-09-08T19:08:13;24.60;1.00
3794;DHT22;1912;51.358;12.282;2023-09-08T19:10:39;24.50;1.00
3794;DHT22;1912;51.358;12.282;2023-09-08T19:13:05;24.40;1.00
3794;DHT22;1912;51.358;12.282;2023-09-08T19:15:30;24.40;1.00
3794;DHT22;1912;51.358;12.282;2023-09-08T19:17:56;24.30;1.00
3794;DHT22;1912;51.358;12.282;2023-09-08T20:19:51;22.70;1.00
3794;DHT22;1912;51.358;12.282;2023-09-08T20:22:16;22.70;1.00
3794;DHT22;1912;51.358;12.282;2023-09-08T20:24:42;22.60;1.00
3794;DHT22;1912;51.358;12.282;2023-09-08T20:27:08;22.40;1.00
3794;DHT22;1912;51.358;12.282;2023-09-08T20:29:36;22.40;1.00
3794;DHT22;1912;51.358;12.282;2023-09-08T20:32:02;22.30;1.00
3794;DHT22;1912;51.358;12.282;2023-09-08T20:34:28;22.30;1.00
3794;DHT22;1912;51.358;12.282;2023-09-08T20:36:54;22.20;1.00
3794;DHT22;1912;51.358;12.282;2023-09-08T20:39:20;22.20;1.00
3794;DHT22;1912;51.358;12.282;2023-09-08T20:41:46;22.20;1.00
3794;DHT22;1912;51.358;12.282;2023-09-08T20:44:14;22.20;1.00
3794;DHT22;1912;51.358;12.282;2023-09-08T20:46:40;22.10;1.00
3794;DHT22;1912;51.358;12.282;2023-09-08T20:49:09;22.10;1.00
3794;DHT22;1912;51.358;12.282;2023-09-08T20:51:35;22.10;1.00
3794;DHT22;1912;51.358;12.282;2023-09-08T20:54:00;22.00;1.00
3794;DHT22;1912;51.358;12.282;2023-09-08T20:56:28;22.00;1.00
3794;DHT22;1912;51.358;12.282;2023-09-08T20:58:54;21.90;1.00
3794;DHT22;1912;51.358;12.282;2023-09-08T21:01:20;21.90;1.00
3794;DHT22;1912;51.358;12.282;2023-09-08T21:03:45;21.80;1.00
3794;DHT22;1912;51.358;12.282;2023-09-08T21:06:12;21.70;1.00
3794;DHT22;1912;51.358;12.282;2023-09-08T21:08:38;21.70;1.00
3794;DHT22;1912;51.358;12.282;2023-09-08T21:11:04;21.60;1.00
3794;DHT22;1912;51.358;12.282;2023-09-08T21:13:29;21.60;1.00
3794;DHT22;1912;51.358;12.282;2023-09-08T21:15:55;21.60;1.00
3794;DHT22;1912;51.358;12.282;2023-09-08T21:18:21;21.60;1.00
3794;DHT22;1912;51.358;12.282;2023-09-08T21:20:47;21.50;1.00
3794;DHT22;1912;51.358;12.282;2023-09-08T21:23:17;21.40;1.00
3794;DHT22;1912;51.358;12.282;2023-09-08T21:25:43;21.40;1.00
3794;DHT22;1912;51.358;12.282;2023-09-08T21:28:09;21.40;1.00
3794;DHT22;1912;51.358;12.282;2023-09-08T21:30:34;21.30;1.00
3794;DHT22;1912;51.358;12.282;2023-09-08T21:33:00;21.30;1.00
3794;DHT22;1912;51.358;12.282;2023-09-08T21:35:26;21.20;1.00
3794;DHT22;1912;51.358;12.282;2023-09-08T21:37:51;21.20;1.00
3794;DHT22;1912;51.358;12.282;2023-09-08T21:40:17;21.20;1.00
3794;DHT22;1912;51.358;12.282;2023-09-08T21:42:43;21.10;1.00
3794;DHT22;1912;51.358;12.282;2023-09-08T21:45:09;21.00;1.00
3794;DHT22;1912;51.358;12.282;2023-09-08T21:47:35;21.00;1.00
3794;DHT22;1912;51.358;12.282;2023-09-08T21:50:01;21.00;1.00
3794;DHT22;1912;51.358;12.282;2023-09-08T21:52:26;21.00;1.00
3794;DHT22;1912;51.358;12.282;2023-09-08T21:54:52;21.00;1.00
3794;DHT22;1912;51.358;12.282;2023-09-08T21:57:18;21.00;1.00
3794;DHT22;1912;51.358;12.282;2023-09-08T21:59:44;21.00;1.00
3794;DHT22;1912;51.358;12.282;2023-09-08T22:02:09;21.00;1.00
3794;DHT22;1912;51.358;12.282;2023-09-08T22:04:35;21.00;1.00
3794;DHT22;1912;51.358;12.282;2023-09-08T22:07:01;21.00;1.00
3794;DHT22;1912;51.358;12.282;2023-09-08T22:09:27;20.90;1.00
3794;DHT22;1912;51.358;12.282;2023-09-08T22:11:53;20.90;1.00
3794;DHT22;1912;51.358;12.282;2023-09-08T22:14:19;20.80;1.00
3794;DHT22;1912;51.358;12.282;2023-09-08T22:16:44;20.80;1.00
3794;DHT22;1912;51.358;12.282;2023-09-08T22:19:11;20.70;1.00
3794;DHT22;1912;51.358;12.282;2023-09-08T22:21:37;20.70;1.00
3794;DHT22;1912;51.358;12.282;2023-09-08T22:24:03;20.70;1.00
3794;DHT22;1912;51.358;12.282;2023-09-08T22:26:29;20.60;1.00
3794;DHT22;1912;51.358;12.282;2023-09-08T22:28:55;20.50;1.00
3794;DHT22;1912;51.358;12.282;2023-09-08T22:31:21;20.50;1.00
3794;DHT22;1912;51.358;12.282;2023-09-08T22:33:47;20.50;1.00
3794;DHT22;1912;51.358;12.282;2023-09-08T22:36:13;20.40;1.00
3794;DHT22;1912;51.358;12.282;2023-09-08T22:38:38;20.30;1.00
3794;DHT22;1912;51.358;12.282;2023-09-08T22:41:04;20.30;1.00
3794;DHT22;1912;51.358;12.282;2023-09-08T22:43:30;20.20;1.00
3794;DHT22;1912;51.358;12.282;2023-09-08T22:45:55;20.20;1.00
3794;DHT22;1912;51.358;12.282;2023-09-08T22:48:21;20.20;1.00
3794;DHT22;1912;51.358;12.282;2023-09-08T22:50:47;20.10;1.00
3794;DHT22;1912;51.358;12.282;2023-09-08T22:53:13;20.10;1.00
3794;DHT22;1912;51.358;12.282;2023-09-08T22:55:40;20.00;1.00
3794;DHT22;1912;51.358;12.282;2023-09-08T22:58:06;20.00;1.00
3794;DHT22;1912;51.358;12.282;2023-09-08T23:00:33;20.00;1.00
3794;DHT22;1912;51.358;12.282;2023-09-08T23:02:59;20.00;1.00
3794;DHT22;1912;51.358;12.282;2023-09-08T23:05:25;20.00;1.00
3794;DHT22;1912;51.358;12.282;2023-09-08T23:07:50;20.00;1.00
3794;DHT22;1912;51.358;12.282;2023-09-08T23:10:16;19.90;1.00
3794;DHT22;1912;51.358;12.282;2023-09-08T23:12:42;19.90;1.00